KWVL/WVL METAR and TAF weather

Enter ICAO airport designator
Station Type Date Time Source
KWVL METAR 2019/04/25 11:56 UTC NOAA

KWVL 251156Z AUTO 01008KT 10SM FEW017 SCT055 06/02 A2991 RMK AO2 SLP158 60000 70002 T00560022 10056 20022 53021


Station Type Date Time Source
KWVL Decoded METAR 2019/04/25 11:56 UTC NOAA

Waterville, Waterville Robert LaFleur Airport, ME, United States (KWVL) 44-32N 069-41W
Apr 25, 2019 - 07:56 AM EDT / 2019.04.25 1156 UTC
Wind: from the N (010 degrees) at 9 MPH (8 KT):0
Visibility: 10 mile(s):0
Sky conditions: partly cloudy
Temperature: 42.1 F (5.6 C)
Dew Point: 36.0 F (2.2 C)
Relative Humidity: 78%
Pressure (altimeter): 29.91 in. Hg (1012 hPa)
Pressure tendency: 0.06 inches (2.1 hPa) higher than three hours ago
ob: KWVL 251156Z AUTO 01008KT 10SM FEW017 SCT055 06/02 A2991 RMK AO2 SLP158 60000 70002 T00560022 10056 20022 53021
cycle: 12

Station Type Date Time Source
KWVL TAF UTC NOAA

Error!

Example: see airport list